sensor_id;sensor_type;location;lat;lon;timestamp;P1;durP1;ratioP1;P2;durP2;ratioP2
22705;SDS011;11520;51.198;4.468;2023-07-28T00:02:07;1.75;;;1.60;;
22705;SDS011;11520;51.198;4.468;2023-07-28T00:04:34;1.95;;;1.80;;
22705;SDS011;11520;51.198;4.468;2023-07-28T00:07:00;2.42;;;1.83;;
22705;SDS011;11520;51.198;4.468;2023-07-28T00:09:26;2.85;;;1.75;;
22705;SDS011;11520;51.198;4.468;2023-07-28T00:11:51;3.05;;;2.20;;
22705;SDS011;11520;51.198;4.468;2023-07-28T00:14:17;2.28;;;2.00;;
22705;SDS011;11520;51.198;4.468;2023-07-28T00:16:42;1.95;;;1.85;;
22705;SDS011;11520;51.198;4.468;2023-07-28T00:19:08;3.03;;;2.03;;
22705;SDS011;11520;51.198;4.468;2023-07-28T00:21:34;2.03;;;1.90;;
22705;SDS011;11520;51.198;4.468;2023-07-28T00:23:59;3.65;;;1.98;;
22705;SDS011;11520;51.198;4.468;2023-07-28T00:26:25;4.00;;;2.20;;
22705;SDS011;11520;51.198;4.468;2023-07-28T00:28:50;2.50;;;2.30;;
22705;SDS011;11520;51.198;4.468;2023-07-28T00:31:16;2.22;;;2.03;;
22705;SDS011;11520;51.198;4.468;2023-07-28T00:33:41;2.38;;;2.08;;
22705;SDS011;11520;51.198;4.468;2023-07-28T00:36:07;3.22;;;2.92;;
22705;SDS011;11520;51.198;4.468;2023-07-28T00:38:32;2.70;;;2.50;;
22705;SDS011;11520;51.198;4.468;2023-07-28T00:40:58;2.95;;;2.60;;
22705;SDS011;11520;51.198;4.468;2023-07-28T00:43:24;5.13;;;3.00;;
22705;SDS011;11520;51.198;4.468;2023-07-28T00:45:49;4.68;;;3.15;;
22705;SDS011;11520;51.198;4.468;2023-07-28T00:48:15;3.70;;;3.40;;
22705;SDS011;11520;51.198;4.468;2023-07-28T00:50:44;4.15;;;3.75;;
22705;SDS011;11520;51.198;4.468;2023-07-28T00:53:11;4.97;;;4.28;;
22705;SDS011;11520;51.198;4.468;2023-07-28T00:55:37;4.50;;;4.10;;
22705;SDS011;11520;51.198;4.468;2023-07-28T00:58:03;4.80;;;4.05;;
22705;SDS011;11520;51.198;4.468;2023-07-28T01:00:29;4.85;;;4.15;;
22705;SDS011;11520;51.198;4.468;2023-07-28T01:02:54;4.72;;;3.85;;
22705;SDS011;11520;51.198;4.468;2023-07-28T01:05:21;5.07;;;4.50;;
22705;SDS011;11520;51.198;4.468;2023-07-28T01:07:54;6.30;;;4.45;;
22705;SDS011;11520;51.198;4.468;2023-07-28T01:10:31;4.97;;;4.57;;
22705;SDS011;11520;51.198;4.468;2023-07-28T01:12:57;6.20;;;3.97;;
22705;SDS011;11520;51.198;4.468;2023-07-28T01:15:23;4.68;;;4.28;;
22705;SDS011;11520;51.198;4.468;2023-07-28T01:17:49;5.18;;;4.68;;
22705;SDS011;11520;51.198;4.468;2023-07-28T01:20:16;4.57;;;4.18;;
22705;SDS011;11520;51.198;4.468;2023-07-28T01:22:46;4.88;;;4.38;;
22705;SDS011;11520;51.198;4.468;2023-07-28T01:28:01;5.32;;;4.82;;
22705;SDS011;11520;51.198;4.468;2023-07-28T01:30:28;7.45;;;5.10;;
22705;SDS011;11520;51.198;4.468;2023-07-28T01:32:54;8.23;;;5.10;;
22705;SDS011;11520;51.198;4.468;2023-07-28T01:35:21;8.35;;;5.05;;
22705;SDS011;11520;51.198;4.468;2023-07-28T01:37:47;8.60;;;5.93;;
22705;SDS011;11520;51.198;4.468;2023-07-28T01:40:16;7.50;;;6.20;;
22705;SDS011;11520;51.198;4.468;2023-07-28T01:42:42;8.18;;;5.68;;
22705;SDS011;11520;51.198;4.468;2023-07-28T01:45:08;9.45;;;5.82;;
22705;SDS011;11520;51.198;4.468;2023-07-28T01:47:33;7.47;;;5.78;;
22705;SDS011;11520;51.198;4.468;2023-07-28T01:49:59;8.00;;;5.75;;
22705;SDS011;11520;51.198;4.468;2023-07-28T01:52:25;6.72;;;5.53;;
22705;SDS011;11520;51.198;4.468;2023-07-28T01:54:50;6.40;;;5.63;;
22705;SDS011;11520;51.198;4.468;2023-07-28T01:57:16;10.38;;;5.88;;
22705;SDS011;11520;51.198;4.468;2023-07-28T01:59:42;6.95;;;5.82;;
22705;SDS011;11520;51.198;4.468;2023-07-28T02:02:07;7.15;;;6.28;;
22705;SDS011;11520;51.198;4.468;2023-07-28T02:04:33;8.70;;;5.70;;
22705;SDS011;11520;51.198;4.468;2023-07-28T02:06:58;6.93;;;6.13;;
22705;SDS011;11520;51.198;4.468;2023-07-28T02:09:24;10.27;;;6.50;;
22705;SDS011;11520;51.198;4.468;2023-07-28T02:11:50;7.13;;;5.88;;
22705;SDS011;11520;51.198;4.468;2023-07-28T02:14:15;7.70;;;6.10;;
22705;SDS011;11520;51.198;4.468;2023-07-28T02:16:41;9.68;;;6.10;;
22705;SDS011;11520;51.198;4.468;2023-07-28T02:19:07;9.50;;;5.38;;
22705;SDS011;11520;51.198;4.468;2023-07-28T02:21:32;10.07;;;5.40;;
22705;SDS011;11520;51.198;4.468;2023-07-28T02:23:58;7.47;;;5.70;;
22705;SDS011;11520;51.198;4.468;2023-07-28T02:26:24;9.60;;;5.18;;
22705;SDS011;11520;51.198;4.468;2023-07-28T02:28:50;8.02;;;5.45;;
22705;SDS011;11520;51.198;4.468;2023-07-28T02:31:16;9.50;;;5.00;;
22705;SDS011;11520;51.198;4.468;2023-07-28T02:33:43;6.18;;;4.57;;
22705;SDS011;11520;51.198;4.468;2023-07-28T02:36:09;6.70;;;4.97;;
22705;SDS011;11520;51.198;4.468;2023-07-28T02:38:35;7.45;;;4.97;;
22705;SDS011;11520;51.198;4.468;2023-07-28T02:41:00;4.65;;;4.10;;
22705;SDS011;11520;51.198;4.468;2023-07-28T02:43:28;5.45;;;4.50;;
22705;SDS011;11520;51.198;4.468;2023-07-28T02:45:54;6.07;;;4.85;;
22705;SDS011;11520;51.198;4.468;2023-07-28T02:48:20;7.95;;;4.35;;
22705;SDS011;11520;51.198;4.468;2023-07-28T02:50:52;6.15;;;4.38;;
22705;SDS011;11520;51.198;4.468;2023-07-28T02:53:17;7.97;;;4.20;;
22705;SDS011;11520;51.198;4.468;2023-07-28T02:55:44;6.05;;;4.07;;
22705;SDS011;11520;51.198;4.468;2023-07-28T02:58:11;7.82;;;4.97;;
22705;SDS011;11520;51.198;4.468;2023-07-28T03:00:37;6.78;;;4.60;;
22705;SDS011;11520;51.198;4.468;2023-07-28T03:03:04;5.78;;;3.95;;
22705;SDS011;11520;51.198;4.468;2023-07-28T03:05:31;5.30;;;4.57;;
22705;SDS011;11520;51.198;4.468;2023-07-28T03:07:57;7.35;;;4.20;;
22705;SDS011;11520;51.198;4.468;2023-07-28T03:10:23;7.47;;;4.05;;
22705;SDS011;11520;51.198;4.468;2023-07-28T03:12:49;4.45;;;3.92;;
22705;SDS011;11520;51.198;4.468;2023-07-28T03:15:15;5.05;;;3.97;;
22705;SDS011;11520;51.198;4.468;2023-07-28T03:17:41;5.57;;;3.72;;
22705;SDS011;11520;51.198;4.468;2023-07-28T03:20:06;6.32;;;3.67;;
22705;SDS011;11520;51.198;4.468;2023-07-28T03:22:32;5.57;;;3.40;;
22705;SDS011;11520;51.198;4.468;2023-07-28T03:24:58;4.65;;;3.58;;
22705;SDS011;11520;51.198;4.468;2023-07-28T03:27:23;4.05;;;3.50;;
22705;SDS011;11520;51.198;4.468;2023-07-28T03:29:49;5.80;;;3.40;;
22705;SDS011;11520;51.198;4.468;2023-07-28T03:32:15;7.40;;;3.13;;
22705;SDS011;11520;51.198;4.468;2023-07-28T03:34:41;4.50;;;3.10;;
22705;SDS011;11520;51.198;4.468;2023-07-28T03:37:07;3.75;;;2.72;;
22705;SDS011;11520;51.198;4.468;2023-07-28T03:39:32;3.13;;;2.83;;
22705;SDS011;11520;51.198;4.468;2023-07-28T03:41:58;5.03;;;3.25;;
22705;SDS011;11520;51.198;4.468;2023-07-28T03:44:24;3.13;;;2.65;;
22705;SDS011;11520;51.198;4.468;2023-07-28T03:46:51;4.88;;;3.00;;
22705;SDS011;11520;51.198;4.468;2023-07-28T03:49:16;5.00;;;3.03;;
22705;SDS011;11520;51.198;4.468;2023-07-28T03:51:42;4.50;;;3.33;;
22705;SDS011;11520;51.198;4.468;2023-07-28T03:54:07;4.32;;;2.40;;
22705;SDS011;11520;51.198;4.468;2023-07-28T03:56:33;4.65;;;2.50;;
22705;SDS011;11520;51.198;4.468;2023-07-28T03:58:59;5.45;;;2.78;;
22705;SDS011;11520;51.198;4.468;2023-07-28T04:01:24;3.33;;;2.65;;
22705;SDS011;11520;51.198;4.468;2023-07-28T04:03:50;4.45;;;2.40;;
22705;SDS011;11520;51.198;4.468;2023-07-28T04:06:16;4.28;;;2.85;;
22705;SDS011;11520;51.198;4.468;2023-07-28T04:08:41;2.63;;;2.40;;
22705;SDS011;11520;51.198;4.468;2023-07-28T04:11:07;2.90;;;2.40;;
22705;SDS011;11520;51.198;4.468;2023-07-28T04:13:33;3.25;;;2.58;;
22705;SDS011;11520;51.198;4.468;2023-07-28T04:15:59;2.60;;;2.17;;
22705;SDS011;11520;51.198;4.468;2023-07-28T04:18:25;2.85;;;2.28;;
22705;SDS011;11520;51.198;4.468;2023-07-28T04:20:51;3.88;;;2.10;;
22705;SDS011;11520;51.198;4.468;2023-07-28T04:23:16;2.55;;;2.30;;
22705;SDS011;11520;51.198;4.468;2023-07-28T04:25:42;5.20;;;2.28;;
22705;SDS011;11520;51.198;4.468;2023-07-28T04:28:10;5.00;;;2.55;;
22705;SDS011;11520;51.198;4.468;2023-07-28T04:30:39;5.22;;;2.20;;
22705;SDS011;11520;51.198;4.468;2023-07-28T04:33:04;2.95;;;2.00;;
22705;SDS011;11520;51.198;4.468;2023-07-28T04:35:31;2.47;;;1.73;;
22705;SDS011;11520;51.198;4.468;2023-07-28T04:37:56;4.85;;;2.30;;
22705;SDS011;11520;51.198;4.468;2023-07-28T04:40:22;2.17;;;1.98;;
22705;SDS011;11520;51.198;4.468;2023-07-28T04:42:48;3.25;;;1.98;;
22705;SDS011;11520;51.198;4.468;2023-07-28T04:45:17;2.10;;;1.70;;
22705;SDS011;11520;51.198;4.468;2023-07-28T04:47:43;2.65;;;1.98;;
22705;SDS011;11520;51.198;4.468;2023-07-28T04:50:09;2.80;;;1.67;;
22705;SDS011;11520;51.198;4.468;2023-07-28T04:52:34;5.13;;;1.80;;
22705;SDS011;11520;51.198;4.468;2023-07-28T04:55:00;3.80;;;1.80;;
22705;SDS011;11520;51.198;4.468;2023-07-28T04:57:25;3.85;;;1.73;;
22705;SDS011;11520;51.198;4.468;2023-07-28T04:59:51;1.90;;;1.77;;
22705;SDS011;11520;51.198;4.468;2023-07-28T05:02:17;1.73;;;1.45;;
22705;SDS011;11520;51.198;4.468;2023-07-28T05:04:42;1.60;;;1.50;;
22705;SDS011;11520;51.198;4.468;2023-07-28T05:07:08;2.67;;;1.70;;
22705;SDS011;11520;51.198;4.468;2023-07-28T05:09:34;2.95;;;1.80;;
22705;SDS011;11520;51.198;4.468;2023-07-28T05:11:59;2.25;;;1.33;;
22705;SDS011;11520;51.198;4.468;2023-07-28T05:14:25;1.92;;;1.52;;
22705;SDS011;11520;51.198;4.468;2023-07-28T05:16:51;1.75;;;1.65;;
22705;SDS011;11520;51.198;4.468;2023-07-28T05:19:16;3.15;;;1.98;;
22705;SDS011;11520;51.198;4.468;2023-07-28T05:21:42;3.42;;;2.10;;
22705;SDS011;11520;51.198;4.468;2023-07-28T05:24:07;2.75;;;1.73;;
22705;SDS011;11520;51.198;4.468;2023-07-28T05:26:33;2.83;;;2.10;;
22705;SDS011;11520;51.198;4.468;2023-07-28T05:28:59;2.40;;;2.03;;
22705;SDS011;11520;51.198;4.468;2023-07-28T05:31:24;2.38;;;2.00;;
22705;SDS011;11520;51.198;4.468;2023-07-28T05:33:50;1.90;;;1.58;;
22705;SDS011;11520;51.198;4.468;2023-07-28T05:36:18;3.22;;;1.70;;
22705;SDS011;11520;51.198;4.468;2023-07-28T05:38:44;4.50;;;3.90;;
22705;SDS011;11520;51.198;4.468;2023-07-28T05:41:09;4.53;;;2.15;;
22705;SDS011;11520;51.198;4.468;2023-07-28T05:43:35;2.45;;;2.25;;
22705;SDS011;11520;51.198;4.468;2023-07-28T05:46:01;2.20;;;2.05;;
22705;SDS011;11520;51.198;4.468;2023-07-28T05:48:26;2.10;;;1.83;;
22705;SDS011;11520;51.198;4.468;2023-07-28T05:50:53;3.38;;;2.17;;
22705;SDS011;11520;51.198;4.468;2023-07-28T05:53:20;1.80;;;1.70;;
22705;SDS011;11520;51.198;4.468;2023-07-28T05:55:46;3.42;;;1.70;;
22705;SDS011;11520;51.198;4.468;2023-07-28T05:58:12;2.13;;;1.90;;
22705;SDS011;11520;51.198;4.468;2023-07-28T06:00:38;4.57;;;2.05;;
22705;SDS011;11520;51.198;4.468;2023-07-28T06:03:05;2.47;;;1.92;;
22705;SDS011;11520;51.198;4.468;2023-07-28T06:05:38;2.70;;;1.88;;
22705;SDS011;11520;51.198;4.468;2023-07-28T06:08:05;2.83;;;2.30;;
22705;SDS011;11520;51.198;4.468;2023-07-28T06:10:31;5.05;;;1.73;;
22705;SDS011;11520;51.198;4.468;2023-07-28T06:12:58;3.40;;;1.60;;
22705;SDS011;11520;51.198;4.468;2023-07-28T06:15:24;2.50;;;1.50;;
22705;SDS011;11520;51.198;4.468;2023-07-28T06:17:49;3.20;;;1.85;;
22705;SDS011;11520;51.198;4.468;2023-07-28T06:20:16;1.70;;;1.60;;
22705;SDS011;11520;51.198;4.468;2023-07-28T06:22:42;3.00;;;1.95;;
22705;SDS011;11520;51.198;4.468;2023-07-28T06:25:07;2.50;;;1.70;;
22705;SDS011;11520;51.198;4.468;2023-07-28T06:27:33;4.13;;;1.73;;
22705;SDS011;11520;51.198;4.468;2023-07-28T06:30:00;2.97;;;1.50;;
22705;SDS011;11520;51.198;4.468;2023-07-28T06:32:26;3.40;;;2.08;;
22705;SDS011;11520;51.198;4.468;2023-07-28T06:34:53;1.83;;;1.63;;
22705;SDS011;11520;51.198;4.468;2023-07-28T06:37:19;4.28;;;1.52;;
22705;SDS011;11520;51.198;4.468;2023-07-28T06:39:44;4.32;;;1.48;;
22705;SDS011;11520;51.198;4.468;2023-07-28T06:42:10;1.80;;;1.60;;
22705;SDS011;11520;51.198;4.468;2023-07-28T06:44:36;2.67;;;1.25;;
22705;SDS011;11520;51.198;4.468;2023-07-28T06:47:03;1.60;;;1.08;;
22705;SDS011;11520;51.198;4.468;2023-07-28T06:49:28;1.65;;;1.30;;
22705;SDS011;11520;51.198;4.468;2023-07-28T06:51:54;1.10;;;1.00;;
22705;SDS011;11520;51.198;4.468;2023-07-28T06:54:20;3.60;;;1.10;;
22705;SDS011;11520;51.198;4.468;2023-07-28T06:56:46;1.23;;;0.80;;
22705;SDS011;11520;51.198;4.468;2023-07-28T06:59:12;2.00;;;1.10;;
22705;SDS011;11520;51.198;4.468;2023-07-28T07:01:38;1.08;;;0.90;;
22705;SDS011;11520;51.198;4.468;2023-07-28T07:04:05;2.70;;;1.00;;
22705;SDS011;11520;51.198;4.468;2023-07-28T07:06:31;0.98;;;0.73;;
22705;SDS011;11520;51.198;4.468;2023-07-28T07:08:57;1.05;;;0.88;;
22705;SDS011;11520;51.198;4.468;2023-07-28T07:11:23;3.00;;;0.98;;
22705;SDS011;11520;51.198;4.468;2023-07-28T07:13:49;0.80;;;0.73;;
22705;SDS011;11520;51.198;4.468;2023-07-28T07:16:15;2.88;;;1.00;;
22705;SDS011;11520;51.198;4.468;2023-07-28T07:18:42;1.77;;;0.90;;
22705;SDS011;11520;51.198;4.468;2023-07-28T07:21:08;1.00;;;0.80;;
22705;SDS011;11520;51.198;4.468;2023-07-28T07:23:35;1.45;;;0.52;;
22705;SDS011;11520;51.198;4.468;2023-07-28T07:26:03;1.17;;;0.70;;
22705;SDS011;11520;51.198;4.468;2023-07-28T07:28:29;4.20;;;1.02;;
22705;SDS011;11520;51.198;4.468;2023-07-28T07:30:56;1.52;;;1.17;;
22705;SDS011;11520;51.198;4.468;2023-07-28T07:33:23;2.63;;;0.70;;
22705;SDS011;11520;51.198;4.468;2023-07-28T07:35:49;1.10;;;0.60;;
22705;SDS011;11520;51.198;4.468;2023-07-28T07:38:15;0.98;;;0.50;;
22705;SDS011;11520;51.198;4.468;2023-07-28T07:40:42;0.60;;;0.60;;
22705;SDS011;11520;51.198;4.468;2023-07-28T07:43:07;2.30;;;1.00;;
22705;SDS011;11520;51.198;4.468;2023-07-28T07:45:33;0.85;;;0.80;;
22705;SDS011;11520;51.198;4.468;2023-07-28T07:47:58;1.75;;;1.25;;
22705;SDS011;11520;51.198;4.468;2023-07-28T07:50:25;1.08;;;0.93;;
22705;SDS011;11520;51.198;4.468;2023-07-28T07:52:59;2.53;;;0.90;;
22705;SDS011;11520;51.198;4.468;2023-07-28T07:55:24;1.67;;;0.93;;
22705;SDS011;11520;51.198;4.468;2023-07-28T07:57:51;2.35;;;0.80;;
22705;SDS011;11520;51.198;4.468;2023-07-28T08:00:21;0.85;;;0.85;;
22705;SDS011;11520;51.198;4.468;2023-07-28T08:02:46;2.20;;;0.88;;
22705;SDS011;11520;51.198;4.468;2023-07-28T08:05:12;0.68;;;0.68;;
22705;SDS011;11520;51.198;4.468;2023-07-28T08:07:38;1.40;;;0.80;;
22705;SDS011;11520;51.198;4.468;2023-07-28T08:10:05;1.00;;;0.57;;
22705;SDS011;11520;51.198;4.468;2023-07-28T08:12:33;0.68;;;0.68;;
22705;SDS011;11520;51.198;4.468;2023-07-28T08:14:59;2.33;;;0.40;;
22705;SDS011;11520;51.198;4.468;2023-07-28T08:17:25;1.00;;;0.70;;
22705;SDS011;11520;51.198;4.468;2023-07-28T08:19:50;4.80;;;0.70;;
22705;SDS011;11520;51.198;4.468;2023-07-28T08:22:16;1.05;;;0.60;;
22705;SDS011;11520;51.198;4.468;2023-07-28T08:24:43;1.13;;;0.57;;
22705;SDS011;11520;51.198;4.468;2023-07-28T08:27:08;1.27;;;0.73;;
22705;SDS011;11520;51.198;4.468;2023-07-28T08:29:34;1.48;;;0.50;;
22705;SDS011;11520;51.198;4.468;2023-07-28T08:32:00;0.40;;;0.40;;
22705;SDS011;11520;51.198;4.468;2023-07-28T08:34:27;0.60;;;0.60;;
22705;SDS011;11520;51.198;4.468;2023-07-28T08:36:52;2.50;;;0.50;;
22705;SDS011;11520;51.198;4.468;2023-07-28T08:39:18;1.00;;;0.47;;
22705;SDS011;11520;51.198;4.468;2023-07-28T08:41:45;10.63;;;1.10;;
22705;SDS011;11520;51.198;4.468;2023-07-28T08:44:12;1.50;;;0.82;;
22705;SDS011;11520;51.198;4.468;2023-07-28T08:46:38;1.90;;;0.50;;
22705;SDS011;11520;51.198;4.468;2023-07-28T08:49:04;1.75;;;0.60;;
22705;SDS011;11520;51.198;4.468;2023-07-28T08:51:30;0.82;;;0.60;;
22705;SDS011;11520;51.198;4.468;2023-07-28T08:53:56;0.88;;;0.60;;
22705;SDS011;11520;51.198;4.468;2023-07-28T08:56:24;2.50;;;0.63;;
22705;SDS011;11520;51.198;4.468;2023-07-28T08:58:57;3.53;;;0.93;;
22705;SDS011;11520;51.198;4.468;2023-07-28T09:01:24;1.48;;;1.00;;
22705;SDS011;11520;51.198;4.468;2023-07-28T09:03:49;5.43;;;1.15;;
22705;SDS011;11520;51.198;4.468;2023-07-28T09:06:15;4.55;;;1.13;;
22705;SDS011;11520;51.198;4.468;2023-07-28T09:08:40;1.73;;;0.60;;
22705;SDS011;11520;51.198;4.468;2023-07-28T09:11:09;2.65;;;1.40;;
22705;SDS011;11520;51.198;4.468;2023-07-28T09:13:39;4.50;;;1.15;;
22705;SDS011;11520;51.198;4.468;2023-07-28T09:16:19;0.90;;;0.68;;
22705;SDS011;11520;51.198;4.468;2023-07-28T09:18:46;0.93;;;0.50;;
22705;SDS011;11520;51.198;4.468;2023-07-28T09:21:16;6.65;;;1.10;;
22705;SDS011;11520;51.198;4.468;2023-07-28T09:23:46;0.80;;;0.50;;
22705;SDS011;11520;51.198;4.468;2023-07-28T09:26:13;3.05;;;0.73;;
22705;SDS011;11520;51.198;4.468;2023-07-28T09:28:40;4.68;;;2.30;;
22705;SDS011;11520;51.198;4.468;2023-07-28T09:31:06;6.03;;;1.00;;
22705;SDS011;11520;51.198;4.468;2023-07-28T09:33:34;1.63;;;0.40;;
22705;SDS011;11520;51.198;4.468;2023-07-28T09:36:06;2.67;;;0.80;;
22705;SDS011;11520;51.198;4.468;2023-07-28T09:38:36;1.70;;;0.80;;
22705;SDS011;11520;51.198;4.468;2023-07-28T09:41:06;3.67;;;0.70;;
22705;SDS011;11520;51.198;4.468;2023-07-28T09:43:35;2.22;;;0.63;;
22705;SDS011;11520;51.198;4.468;2023-07-28T09:46:06;1.50;;;0.60;;
22705;SDS011;11520;51.198;4.468;2023-07-28T09:48:33;10.48;;;1.50;;
22705;SDS011;11520;51.198;4.468;2023-07-28T09:51:03;2.10;;;0.80;;
22705;SDS011;11520;51.198;4.468;2023-07-28T09:53:34;9.27;;;1.38;;
22705;SDS011;11520;51.198;4.468;2023-07-28T09:56:05;2.78;;;0.40;;
22705;SDS011;11520;51.198;4.468;2023-07-28T09:58:34;3.28;;;0.57;;
22705;SDS011;11520;51.198;4.468;2023-07-28T10:01:06;0.60;;;0.50;;
22705;SDS011;11520;51.198;4.468;2023-07-28T10:03:33;2.67;;;0.60;;
22705;SDS011;11520;51.198;4.468;2023-07-28T10:05:59;1.23;;;0.63;;
22705;SDS011;11520;51.198;4.468;2023-07-28T10:08:24;0.70;;;0.52;;
22705;SDS011;11520;51.198;4.468;2023-07-28T10:10:51;4.43;;;0.60;;
22705;SDS011;11520;51.198;4.468;2023-07-28T10:13:21;1.77;;;0.60;;
22705;SDS011;11520;51.198;4.468;2023-07-28T10:15:47;4.00;;;0.70;;
22705;SDS011;11520;51.198;4.468;2023-07-28T10:18:13;2.38;;;0.50;;
22705;SDS011;11520;51.198;4.468;2023-07-28T10:20:40;2.05;;;0.50;;
22705;SDS011;11520;51.198;4.468;2023-07-28T10:23:12;3.55;;;0.70;;
22705;SDS011;11520;51.198;4.468;2023-07-28T10:25:40;0.53;;;0.40;;
22705;SDS011;11520;51.198;4.468;2023-07-28T10:28:07;1.92;;;0.70;;
22705;SDS011;11520;51.198;4.468;2023-07-28T10:30:54;2.17;;;0.70;;
22705;SDS011;11520;51.198;4.468;2023-07-28T10:33:27;3.50;;;0.70;;
22705;SDS011;11520;51.198;4.468;2023-07-28T10:35:57;1.92;;;0.88;;
22705;SDS011;11520;51.198;4.468;2023-07-28T10:38:36;1.40;;;0.57;;
22705;SDS011;11520;51.198;4.468;2023-07-28T10:41:35;1.27;;;0.65;;
22705;SDS011;11520;51.198;4.468;2023-07-28T10:43:55;0.95;;;0.60;;
22705;SDS011;11520;51.198;4.468;2023-07-28T10:46:21;6.82;;;1.65;;
22705;SDS011;11520;51.198;4.468;2023-07-28T10:48:48;0.80;;;0.70;;
22705;SDS011;11520;51.198;4.468;2023-07-28T10:51:35;2.40;;;0.82;;
22705;SDS011;11520;51.198;4.468;2023-07-28T10:54:01;3.03;;;0.82;;
22705;SDS011;11520;51.198;4.468;2023-07-28T10:56:29;3.20;;;0.82;;
22705;SDS011;11520;51.198;4.468;2023-07-28T10:58:56;3.70;;;0.93;;
22705;SDS011;11520;51.198;4.468;2023-07-28T11:01:34;2.13;;;1.23;;
22705;SDS011;11520;51.198;4.468;2023-07-28T11:04:08;12.70;;;2.50;;
22705;SDS011;11520;51.198;4.468;2023-07-28T11:06:34;11.38;;;1.40;;
22705;SDS011;11520;51.198;4.468;2023-07-28T11:09:00;6.03;;;1.63;;
22705;SDS011;11520;51.198;4.468;2023-07-28T11:11:26;2.33;;;1.15;;
22705;SDS011;11520;51.198;4.468;2023-07-28T11:13:53;3.75;;;0.82;;
22705;SDS011;11520;51.198;4.468;2023-07-28T11:16:19;1.75;;;1.08;;
22705;SDS011;11520;51.198;4.468;2023-07-28T11:18:46;2.22;;;0.85;;
22705;SDS011;11520;51.198;4.468;2023-07-28T11:21:11;3.40;;;1.30;;
22705;SDS011;11520;51.198;4.468;2023-07-28T11:23:37;2.28;;;1.40;;
22705;SDS011;11520;51.198;4.468;2023-07-28T11:26:05;3.63;;;1.15;;
22705;SDS011;11520;51.198;4.468;2023-07-28T11:28:30;2.38;;;0.90;;
22705;SDS011;11520;51.198;4.468;2023-07-28T11:30:57;1.00;;;0.63;;
22705;SDS011;11520;51.198;4.468;2023-07-28T11:33:24;3.28;;;0.85;;
22705;SDS011;11520;51.198;4.468;2023-07-28T11:35:50;2.00;;;0.77;;
22705;SDS011;11520;51.198;4.468;2023-07-28T11:38:16;2.05;;;0.80;;
22705;SDS011;11520;51.198;4.468;2023-07-28T11:40:42;2.22;;;0.90;;
22705;SDS011;11520;51.198;4.468;2023-07-28T11:43:09;5.40;;;0.70;;
22705;SDS011;11520;51.198;4.468;2023-07-28T11:45:36;0.98;;;0.50;;
22705;SDS011;11520;51.198;4.468;2023-07-28T11:48:02;1.00;;;0.57;;
22705;SDS011;11520;51.198;4.468;2023-07-28T11:50:39;1.05;;;0.60;;
22705;SDS011;11520;51.198;4.468;2023-07-28T11:53:06;1.42;;;0.50;;
22705;SDS011;11520;51.198;4.468;2023-07-28T11:55:34;4.55;;;1.00;;
22705;SDS011;11520;51.198;4.468;2023-07-28T11:58:02;1.40;;;0.80;;
22705;SDS011;11520;51.198;4.468;2023-07-28T12:00:39;2.15;;;0.63;;
22705;SDS011;11520;51.198;4.468;2023-07-28T12:03:08;3.42;;;0.55;;
22705;SDS011;11520;51.198;4.468;2023-07-28T12:05:37;1.08;;;0.50;;
22705;SDS011;11520;51.198;4.468;2023-07-28T12:08:08;0.98;;;0.65;;
22705;SDS011;11520;51.198;4.468;2023-07-28T12:10:34;4.97;;;0.63;;
22705;SDS011;11520;51.198;4.468;2023-07-28T12:13:06;2.65;;;0.50;;
22705;SDS011;11520;51.198;4.468;2023-07-28T12:15:33;2.20;;;0.40;;
22705;SDS011;11520;51.198;4.468;2023-07-28T12:20:37;5.38;;;0.65;;
22705;SDS011;11520;51.198;4.468;2023-07-28T12:23:05;4.00;;;0.70;;
22705;SDS011;11520;51.198;4.468;2023-07-28T12:25:31;0.63;;;0.30;;
22705;SDS011;11520;51.198;4.468;2023-07-28T12:27:57;1.27;;;0.32;;
22705;SDS011;11520;51.198;4.468;2023-07-28T12:30:23;7.57;;;1.30;;
22705;SDS011;11520;51.198;4.468;2023-07-28T12:32:49;0.63;;;0.40;;
22705;SDS011;11520;51.198;4.468;2023-07-28T12:35:15;1.65;;;0.55;;
22705;SDS011;11520;51.198;4.468;2023-07-28T12:37:41;3.35;;;0.90;;
22705;SDS011;11520;51.198;4.468;2023-07-28T12:40:07;1.17;;;0.55;;
22705;SDS011;11520;51.198;4.468;2023-07-28T12:42:35;0.70;;;0.45;;
22705;SDS011;11520;51.198;4.468;2023-07-28T12:45:01;1.15;;;0.55;;
22705;SDS011;11520;51.198;4.468;2023-07-28T12:47:26;3.83;;;0.50;;
22705;SDS011;11520;51.198;4.468;2023-07-28T12:49:52;0.82;;;0.35;;
22705;SDS011;11520;51.198;4.468;2023-07-28T12:52:18;3.25;;;0.88;;
22705;SDS011;11520;51.198;4.468;2023-07-28T12:54:45;0.88;;;0.40;;
22705;SDS011;11520;51.198;4.468;2023-07-28T12:57:10;0.65;;;0.40;;
22705;SDS011;11520;51.198;4.468;2023-07-28T12:59:37;0.60;;;0.30;;
22705;SDS011;11520;51.198;4.468;2023-07-28T13:02:03;0.50;;;0.40;;
22705;SDS011;11520;51.198;4.468;2023-07-28T13:04:29;1.95;;;0.40;;
22705;SDS011;11520;51.198;4.468;2023-07-28T13:06:54;0.95;;;0.60;;
22705;SDS011;11520;51.198;4.468;2023-07-28T13:09:20;2.13;;;1.02;;
22705;SDS011;11520;51.198;4.468;2023-07-28T13:11:45;0.80;;;0.50;;
22705;SDS011;11520;51.198;4.468;2023-07-28T13:14:12;5.07;;;0.68;;
22705;SDS011;11520;51.198;4.468;2023-07-28T13:16:38;2.17;;;0.70;;
22705;SDS011;11520;51.198;4.468;2023-07-28T13:19:04;3.13;;;1.00;;
22705;SDS011;11520;51.198;4.468;2023-07-28T13:21:30;1.52;;;0.63;;
22705;SDS011;11520;51.198;4.468;2023-07-28T13:23:56;2.88;;;1.58;;
22705;SDS011;11520;51.198;4.468;2023-07-28T13:26:21;2.67;;;0.80;;
22705;SDS011;11520;51.198;4.468;2023-07-28T13:28:47;2.78;;;0.60;;
22705;SDS011;11520;51.198;4.468;2023-07-28T13:31:18;2.53;;;0.77;;
22705;SDS011;11520;51.198;4.468;2023-07-28T13:33:43;3.75;;;0.80;;
22705;SDS011;11520;51.198;4.468;2023-07-28T13:36:09;1.90;;;0.80;;
22705;SDS011;11520;51.198;4.468;2023-07-28T13:38:36;1.45;;;0.82;;
22705;SDS011;11520;51.198;4.468;2023-07-28T13:41:05;2.00;;;0.47;;
22705;SDS011;11520;51.198;4.468;2023-07-28T13:43:31;1.10;;;0.60;;
22705;SDS011;11520;51.198;4.468;2023-07-28T13:45:58;1.02;;;0.55;;
22705;SDS011;11520;51.198;4.468;2023-07-28T13:48:24;2.55;;;0.50;;
22705;SDS011;11520;51.198;4.468;2023-07-28T13:50:51;1.75;;;0.60;;
22705;SDS011;11520;51.198;4.468;2023-07-28T13:53:16;1.60;;;0.80;;
22705;SDS011;11520;51.198;4.468;2023-07-28T13:55:42;1.00;;;0.60;;
22705;SDS011;11520;51.198;4.468;2023-07-28T13:58:08;1.70;;;0.50;;
22705;SDS011;11520;51.198;4.468;2023-07-28T14:00:33;1.90;;;0.35;;
22705;SDS011;11520;51.198;4.468;2023-07-28T14:02:59;0.73;;;0.60;;
22705;SDS011;11520;51.198;4.468;2023-07-28T14:05:25;0.95;;;0.50;;
22705;SDS011;11520;51.198;4.468;2023-07-28T14:07:53;1.15;;;0.60;;
22705;SDS011;11520;51.198;4.468;2023-07-28T14:10:18;3.55;;;0.60;;
22705;SDS011;11520;51.198;4.468;2023-07-28T14:12:44;3.20;;;0.80;;
22705;SDS011;11520;51.198;4.468;2023-07-28T14:15:10;1.17;;;0.60;;
22705;SDS011;11520;51.198;4.468;2023-07-28T14:17:35;1.25;;;0.47;;
22705;SDS011;11520;51.198;4.468;2023-07-28T14:20:02;1.55;;;0.60;;
22705;SDS011;11520;51.198;4.468;2023-07-28T14:22:28;2.50;;;0.80;;
22705;SDS011;11520;51.198;4.468;2023-07-28T14:24:54;1.67;;;0.80;;
22705;SDS011;11520;51.198;4.468;2023-07-28T14:27:19;1.48;;;0.50;;
22705;SDS011;11520;51.198;4.468;2023-07-28T14:29:45;1.70;;;0.90;;
22705;SDS011;11520;51.198;4.468;2023-07-28T14:32:10;0.73;;;0.70;;
22705;SDS011;11520;51.198;4.468;2023-07-28T14:34:36;2.10;;;0.60;;
22705;SDS011;11520;51.198;4.468;2023-07-28T14:37:03;4.20;;;0.60;;
22705;SDS011;11520;51.198;4.468;2023-07-28T14:39:33;1.10;;;0.70;;
22705;SDS011;11520;51.198;4.468;2023-07-28T14:41:58;2.50;;;1.02;;
22705;SDS011;11520;51.198;4.468;2023-07-28T14:44:24;5.97;;;1.55;;
22705;SDS011;11520;51.198;4.468;2023-07-28T14:46:50;1.10;;;0.50;;
22705;SDS011;11520;51.198;4.468;2023-07-28T14:49:16;2.42;;;0.73;;
22705;SDS011;11520;51.198;4.468;2023-07-28T14:51:42;0.93;;;0.50;;